Aérodrome :
LOGIN :

S'inscrire | Disclaimer

   EN    FR    IT 

 










Légende :    VFR   VFR Marginal   IFR   IFR Intensif   IFR Très Intensif
Visi : 
Plafond : 
>= 8 km
>= 3000ft
5 à 8 km
1000 à 3000 ft
1500m à 5 km
500 à 1000 ft
800 à 1500m
200 à 500 ft
< 800m
< 200 ft
Symboles :   Orages  Brouillard  Fortes neiges  Fortes précipitations  Vent > 20 kt
SIGMETs :   Divers  Orages  Givrage  Turbulence  Onde Orograph.  Cendres Volcan.






- Altitude de l'aérodrome : 28 ft
- Code IATA : SOZ


LFKS - Solenzara

DERNIER METAR :
  • 171830Z AUTO 34005KT 300V010 9999 VCTS ////// 09/07 Q1013

METARs EXPIRÉS :
  • 171800Z AUTO VRB02KT 9999 VCTS ////// 08/05 Q1013
  • 171730Z AUTO 29005KT 9999 ////// 08/06 Q1012
  • 171700Z AUTO 28004KT 9999 ////// 09/06 Q1012
  • 171630Z AUTO 27004KT 9999 ////// 09/07 Q1012
  • 171600Z AUTO 07002KT 9999 ////// 12/06 Q1012

TAF TAF LFKS
Valide du 17 à 03h jusqu'au 18 à 03h UTC


170200Z 1703/1803 34005KT 9999 BKN045
TEMPO 1717/1803 32015G25KT 4000 RA BKN030TCU
PROB30
TEMPO 1720/1803 03015G25KT SCT025CB



MET'MAP, la Météo Aéronautique d'un coup d'oeil ! - Copyright ORBIFLY Décembre 2007 - Disclaimer

ORBIFLY MET'MAP TEAM :

Programmation & Développement : Alexandra Zaïnal
Sur une idée originale de : Baudouin d'Aumeries
Assistance à la programmation : Marc-Olivier Méhu
Soutien technique & logistique : Manuel Goepfert

Contact : metmap@orbifly.com




SOURCES & CREDITS :

   NOAA